Time;durP1;ratioP1;P1;durP2;ratioP2;P2;SDS_P1;SDS_P2;PMS_P1;PMS_P2;Temp;Humidity;BMP_temperature;BMP_pressure;BME280_temperature;BME280_humidity;BME280_pressure;Samples;Min_cycle;Max_cycle;Signal;HPM_P1;HPM_P2
2022/05/25 00:01:42;;;;;;;3.17;1.08;;;;;;;15.86;63.74;99440.16;4941902;28;20023;-84
2022/05/25 00:04:08;;;;;;;3.15;1.23;;;;;;;15.88;63.79;99448.06;4942081;28;20035;-84
2022/05/25 00:06:33;;;;;;;1.70;1.10;;;;;;;15.82;63.49;99446.94;4941534;28;20477;-84
2022/05/25 00:08:59;;;;;;;1.65;1.20;;;;;;;15.80;63.73;99442.75;4941058;28;20037;-83
2022/05/25 00:11:24;;;;;;;1.65;0.98;;;;;;;15.79;63.90;99441.94;4941734;28;20110;-84
2022/05/25 00:13:50;;;;;;;1.52;1.15;;;;;;;15.80;64.17;99438.22;4957771;28;20030;-84
2022/05/25 00:16:15;;;;;;;2.38;1.10;;;;;;;15.79;64.16;99441.94;4941633;28;20025;-84
2022/05/25 00:21:24;;;;;;;1.42;1.00;;;;;;;15.75;64.00;99448.72;4941100;28;20469;-84
2022/05/25 00:23:50;;;;;;;1.17;1.05;;;;;;;15.71;63.53;99448.25;4956718;28;20082;-85
2022/05/25 00:26:15;;;;;;;3.67;1.02;;;;;;;15.67;63.54;99436.16;4941851;28;20041;-85
2022/05/25 00:28:40;;;;;;;2.17;1.20;;;;;;;15.67;64.06;99446.09;4941538;28;20023;-84
2022/05/25 00:31:08;;;;;;;1.48;1.17;;;;;;;15.66;63.49;99450.66;4929646;29;20042;-85
2022/05/25 00:33:34;;;;;;;3.03;1.02;;;;;;;15.64;63.54;99446.47;4951145;28;20533;-85
2022/05/25 00:35:59;;;;;;;1.40;1.05;;;;;;;15.59;63.50;99452.38;4941520;28;20170;-84
2022/05/25 00:38:24;;;;;;;1.65;1.00;;;;;;;15.60;63.69;99464.00;4957363;28;20424;-85
2022/05/25 00:40:50;;;;;;;2.05;1.02;;;;;;;15.59;64.18;99459.63;4957429;28;20350;-84
2022/05/25 00:43:15;;;;;;;1.35;1.00;;;;;;;15.55;63.21;99469.91;4941175;28;20034;-84
2022/05/25 00:45:47;;;;;;;1.70;1.10;;;;;;;15.57;64.48;99467.03;4940837;28;20041;-85
2022/05/25 00:48:32;;;;;;;2.60;1.15;;;;;;;15.59;63.60;99470.41;4929630;29;20031;-84
2022/05/25 00:51:13;;;;;;;1.50;1.00;;;;;;;15.57;63.50;99473.25;4931062;29;20037;-84
2022/05/25 00:53:44;;;;;;;1.73;1.23;;;;;;;15.54;63.62;99470.09;4924046;29;20077;-85
2022/05/25 00:56:13;;;;;;;1.42;1.10;;;;;;;15.53;63.58;99465.72;4922068;29;20031;-84
2022/05/25 00:58:39;;;;;;;2.33;1.08;;;;;;;15.51;64.48;99470.44;4921925;29;20378;-85
2022/05/25 01:01:04;;;;;;;2.20;1.25;;;;;;;15.43;64.03;99474.06;4921738;29;20031;-85
2022/05/25 01:03:30;;;;;;;1.65;1.40;;;;;;;15.44;64.64;99481.13;4937332;29;20019;-85
2022/05/25 01:06:40;;;;;;;2.53;1.13;;;;;;;15.41;63.87;99482.31;4937508;29;20031;-84
2022/05/25 01:09:15;;;;;;;1.73;1.23;;;;;;;15.37;64.45;99481.00;4922190;29;20062;-86
2022/05/25 01:11:54;;;;;;;1.77;1.05;;;;;;;15.38;64.14;99477.28;4921630;29;20031;-84
2022/05/25 01:14:42;;;;;;;2.65;1.20;;;;;;;15.30;63.61;99480.06;4921821;29;20027;-85
2022/05/25 01:17:13;;;;;;;1.10;1.00;;;;;;;15.29;64.07;99478.38;4932416;28;20030;-85
2022/05/25 01:19:41;;;;;;;1.27;0.98;;;;;;;15.30;64.29;99480.06;4956411;28;20030;-84
2022/05/25 01:22:24;;;;;;;3.38;1.20;;;;;;;15.32;63.70;99483.41;4956607;28;20026;-84
2022/05/25 01:24:59;;;;;;;1.33;1.13;;;;;;;15.25;64.19;99485.16;4956461;28;20512;-84
2022/05/25 01:27:38;;;;;;;2.92;1.00;;;;;;;15.27;65.03;99487.66;4940479;28;20034;-85
2022/05/25 01:30:32;;;;;;;2.28;1.17;;;;;;;15.30;64.71;99495.38;4940561;28;20385;-85
2022/05/25 01:33:35;;;;;;;1.10;1.00;;;;;;;15.23;64.94;99491.72;4952783;28;20053;-84
2022/05/25 01:36:08;;;;;;;1.42;1.00;;;;;;;15.27;64.29;99493.03;4956417;28;20471;-83
2022/05/25 01:38:41;;;;;;;2.88;1.08;;;;;;;15.24;64.28;99496.09;4940286;28;20473;-84
2022/05/25 01:41:11;;;;;;;1.40;1.00;;;;;;;15.19;64.28;99491.25;4940444;28;20027;-84
2022/05/25 01:43:41;;;;;;;1.67;1.35;;;;;;;15.15;64.71;99498.00;4940224;28;20018;-84
2022/05/25 01:46:19;;;;;;;2.80;1.30;;;;;;;15.14;65.26;99501.72;4956223;28;20481;-84
2022/05/25 01:48:45;;;;;;;1.27;1.15;;;;;;;15.14;64.46;99504.41;4940275;28;20023;-84
2022/05/25 01:51:14;;;;;;;1.60;1.30;;;;;;;15.11;64.63;99510.13;4940258;28;20031;-83
2022/05/25 01:53:43;;;;;;;1.65;1.10;;;;;;;15.10;64.70;99501.22;4940211;28;20034;-84
2022/05/25 01:56:12;;;;;;;2.03;1.20;;;;;;;15.05;65.26;99505.47;4940048;28;20030;-84
2022/05/25 01:58:40;;;;;;;2.80;1.42;;;;;;;15.04;65.42;99514.56;4940162;28;20026;-84
2022/05/25 02:01:07;;;;;;;1.20;1.10;;;;;;;15.05;65.43;99513.53;4940233;28;20031;-84
2022/05/25 02:06:49;;;;;;;1.75;1.25;;;;;;;15.04;65.00;99518.09;4958740;28;20045;-84
2022/05/25 02:09:52;;;;;;;1.90;1.23;;;;;;;15.01;65.11;99523.00;4956138;28;20026;-83
2022/05/25 02:12:24;;;;;;;1.95;1.33;;;;;;;14.96;65.69;99523.53;4973365;28;20657;-83
2022/05/25 02:14:49;;;;;;;1.38;1.27;;;;;;;14.94;65.10;99527.41;4956044;28;20018;-84
2022/05/25 02:17:51;;;;;;;2.70;1.45;;;;;;;14.96;65.51;99522.69;4955917;28;20049;-84
2022/05/25 02:20:28;;;;;;;2.88;1.50;;;;;;;14.95;65.15;99524.53;4940086;28;20030;-84
2022/05/25 02:23:02;;;;;;;2.08;1.30;;;;;;;14.93;65.18;99523.88;4956043;28;20069;-84
2022/05/25 02:25:37;;;;;;;2.13;1.50;;;;;;;14.95;65.39;99529.91;4939290;28;20101;-84
2022/05/25 02:28:06;;;;;;;1.88;1.50;;;;;;;14.93;65.71;99531.13;4939456;28;20030;-83
2022/05/25 02:30:34;;;;;;;2.25;1.60;;;;;;;14.89;65.65;99527.94;4940632;28;20031;-84
2022/05/25 02:33:03;;;;;;;2.95;1.60;;;;;;;14.88;65.38;99539.72;4943377;28;20039;-84
2022/05/25 02:35:29;;;;;;;2.30;1.58;;;;;;;14.86;65.75;99539.06;4943568;28;20168;-84
2022/05/25 02:37:58;;;;;;;2.05;1.40;;;;;;;14.86;65.41;99539.06;4943594;28;20030;-84
2022/05/25 02:40:23;;;;;;;2.35;1.75;;;;;;;14.82;65.40;99535.03;4959529;28;20043;-84
2022/05/25 02:42:48;;;;;;;2.90;1.95;;;;;;;14.83;65.30;99531.34;4943660;28;20027;-83
2022/05/25 02:45:14;;;;;;;2.88;1.70;;;;;;;14.82;65.21;99537.75;4943514;28;20457;-84
2022/05/25 02:47:39;;;;;;;2.83;1.65;;;;;;;14.79;65.70;99540.78;4943232;28;20061;-83
2022/05/25 02:50:05;;;;;;;2.95;2.00;;;;;;;14.78;65.33;99537.25;4943230;28;20066;-84
2022/05/25 02:52:31;;;;;;;2.35;1.80;;;;;;;14.75;65.77;99540.28;4943268;28;20469;-83
2022/05/25 02:54:56;;;;;;;2.90;1.90;;;;;;;14.73;65.54;99534.25;4959373;28;20084;-84
2022/05/25 02:57:22;;;;;;;2.88;1.63;;;;;;;14.72;65.47;99547.88;4943280;28;20026;-84
2022/05/25 02:59:47;;;;;;;4.25;2.00;;;;;;;14.72;65.69;99539.81;4943261;28;20069;-85
2022/05/25 03:02:13;;;;;;;3.72;1.85;;;;;;;14.70;65.56;99550.75;4943261;28;20029;-84
2022/05/25 03:04:40;;;;;;;2.47;1.98;;;;;;;14.66;65.90;99552.13;4943191;28;20027;-83
2022/05/25 03:07:07;;;;;;;2.70;1.77;;;;;;;14.69;65.61;99554.47;4943054;28;20027;-84
2022/05/25 03:09:34;;;;;;;6.57;1.90;;;;;;;14.67;66.08;99553.78;4942891;28;20496;-83
2022/05/25 03:12:02;;;;;;;2.20;1.80;;;;;;;14.66;65.54;99553.94;4942803;28;20034;-84
2022/05/25 03:14:28;;;;;;;3.03;2.00;;;;;;;14.60;65.58;99549.25;4943177;28;20050;-84
2022/05/25 03:16:54;;;;;;;3.42;1.88;;;;;;;14.60;66.07;99550.09;4942973;28;20027;-85
2022/05/25 03:19:19;;;;;;;3.55;1.90;;;;;;;14.60;65.63;99558.16;4958947;28;20026;-84
2022/05/25 03:21:45;;;;;;;2.90;1.80;;;;;;;14.56;65.92;99553.31;4943093;28;20041;-84
2022/05/25 03:24:10;;;;;;;2.33;1.70;;;;;;;14.58;65.91;99562.03;4958630;28;20035;-85
2022/05/25 03:26:35;;;;;;;3.20;2.00;;;;;;;14.59;65.78;99561.88;4942792;28;20058;-85
2022/05/25 03:29:01;;;;;;;3.22;1.95;;;;;;;14.58;65.81;99570.13;4942757;28;20487;-84
2022/05/25 03:31:26;;;;;;;5.00;2.20;;;;;;;14.56;65.51;99572.13;4942554;28;20094;-84
2022/05/25 03:33:51;;;;;;;2.35;1.85;;;;;;;14.54;66.06;99575.00;4942787;28;20529;-85
2022/05/25 03:36:17;;;;;;;2.45;1.77;;;;;;;14.54;65.37;99577.69;4958557;28;20035;-85
2022/05/25 03:38:42;;;;;;;2.78;2.10;;;;;;;14.52;66.40;99576.19;4942265;28;20080;-85
2022/05/25 03:41:08;;;;;;;3.28;1.90;;;;;;;14.51;65.70;99586.13;4958395;28;20496;-84
2022/05/25 03:43:35;;;;;;;3.25;1.98;;;;;;;14.48;66.04;99581.06;4958314;28;20053;-84
2022/05/25 03:46:01;;;;;;;3.40;2.00;;;;;;;14.39;65.76;99580.22;4938563;29;20027;-84
2022/05/25 03:48:26;;;;;;;2.75;2.10;;;;;;;14.42;66.14;99585.28;4957794;28;20085;-85
2022/05/25 03:50:52;;;;;;;5.40;2.70;;;;;;;14.46;66.20;99583.94;4958214;28;20023;-85
2022/05/25 03:53:17;;;;;;;4.13;2.60;;;;;;;14.46;66.53;99586.63;4942179;28;20067;-84
2022/05/25 03:55:43;;;;;;;3.45;2.35;;;;;;;14.40;66.38;99589.97;4958197;28;20033;-84
2022/05/25 03:58:09;;;;;;;3.70;2.28;;;;;;;14.31;65.83;99590.16;4942202;28;20027;-85
2022/05/25 04:00:35;;;;;;;4.70;2.33;;;;;;;14.41;66.42;99588.97;4958190;28;20038;-84
2022/05/25 04:03:02;;;;;;;3.83;2.45;;;;;;;14.48;66.75;99591.84;4942093;28;20027;-85
2022/05/25 04:05:29;;;;;;;3.40;2.25;;;;;;;14.46;66.39;99601.94;4942127;28;20027;-85
2022/05/25 04:07:56;;;;;;;3.08;2.40;;;;;;;14.43;66.60;99596.91;4958093;28;20113;-85
2022/05/25 04:10:22;;;;;;;4.88;2.63;;;;;;;14.40;66.34;99606.13;4942084;28;20023;-85
2022/05/25 04:12:48;;;;;;;3.35;2.35;;;;;;;14.41;66.08;99605.09;4941988;28;20173;-85
2022/05/25 04:15:17;;;;;;;2.85;2.33;;;;;;;14.36;66.86;99603.94;4942104;28;20110;-84
2022/05/25 04:17:42;;;;;;;3.10;1.92;;;;;;;14.40;66.30;99607.97;4941774;28;20046;-85
2022/05/25 04:20:08;;;;;;;3.47;1.88;;;;;;;14.39;66.36;99615.19;4941860;28;20023;-85
2022/05/25 04:22:35;;;;;;;3.55;1.88;;;;;;;14.36;66.60;99612.84;4957596;28;20038;-85
2022/05/25 04:25:04;;;;;;;2.90;1.80;;;;;;;14.35;66.78;99613.03;4941522;28;20043;-85
2022/05/25 04:27:29;;;;;;;2.75;1.50;;;;;;;14.35;66.38;99618.41;4941730;28;20074;-85
2022/05/25 04:29:54;;;;;;;3.13;1.65;;;;;;;14.30;67.02;99604.63;4941412;28;20023;-85
2022/05/25 04:32:20;;;;;;;2.42;1.55;;;;;;;14.30;67.31;99618.91;4957339;28;20484;-85
2022/05/25 04:34:45;;;;;;;1.90;1.23;;;;;;;14.37;66.90;99619.06;4941443;28;20508;-85
2022/05/25 04:39:54;;;;;;;1.77;1.60;;;;;;;14.32;66.96;99616.91;4960327;28;20030;-85
2022/05/25 04:42:20;;;;;;;2.08;1.33;;;;;;;14.34;66.91;99616.72;4941308;28;20038;-86
2022/05/25 04:44:45;;;;;;;2.85;1.30;;;;;;;14.30;66.75;99623.47;4941178;28;20041;-85
2022/05/25 04:47:12;;;;;;;2.47;1.48;;;;;;;14.32;67.17;99626.81;4957095;28;20022;-85
2022/05/25 04:49:42;;;;;;;1.98;1.30;;;;;;;14.37;67.97;99622.59;4957384;28;20042;-85
2022/05/25 04:52:07;;;;;;;3.65;1.15;;;;;;;14.32;67.39;99624.97;4957212;28;20026;-85
2022/05/25 04:54:33;;;;;;;2.22;1.20;;;;;;;14.41;67.47;99631.19;4957375;28;20050;-85
2022/05/25 04:59:43;;;;;;;2.00;1.00;;;;;;;14.36;66.96;99626.31;4959713;28;20038;-85
2022/05/25 05:02:08;;;;;;;3.25;1.05;;;;;;;14.34;67.33;99624.78;4957032;28;20035;-85
2022/05/25 05:04:33;;;;;;;1.98;1.20;;;;;;;14.34;66.87;99639.09;4956944;28;20036;-85
2022/05/25 05:06:58;;;;;;;3.17;1.10;;;;;;;14.40;67.25;99635.72;4956271;28;20027;-85
2022/05/25 05:09:24;;;;;;;5.10;1.27;;;;;;;14.45;67.22;99638.75;4939764;28;20023;-84
2022/05/25 05:11:49;;;;;;;2.28;1.10;;;;;;;14.55;67.27;99643.97;4940982;28;20350;-84
2022/05/25 05:14:14;;;;;;;1.77;1.10;;;;;;;14.51;67.22;99639.94;4956388;28;20054;-84
2022/05/25 05:16:40;;;;;;;1.58;1.08;;;;;;;14.54;66.58;99639.59;4956560;28;20109;-85
2022/05/25 05:19:05;;;;;;;1.88;1.00;;;;;;;14.49;67.29;99641.94;4939988;28;20042;-84
2022/05/25 05:21:31;;;;;;;2.40;0.90;;;;;;;14.52;66.60;99644.31;4940506;28;20041;-84
2022/05/25 05:23:56;;;;;;;2.03;1.00;;;;;;;14.66;66.87;99643.63;4940078;28;20389;-84
2022/05/25 05:26:21;;;;;;;2.38;1.20;;;;;;;14.63;66.14;99654.69;4956463;28;20048;-85
2022/05/25 05:28:49;;;;;;;1.80;1.10;;;;;;;14.61;66.71;99654.03;4940538;28;20039;-84
2022/05/25 05:31:15;;;;;;;2.30;0.98;;;;;;;14.63;66.63;99653.88;4957031;28;20027;-85
2022/05/25 05:33:41;;;;;;;1.63;0.80;;;;;;;14.62;66.68;99652.19;4940527;28;20030;-85
2022/05/25 05:36:12;;;;;;;1.48;1.10;;;;;;;14.61;66.75;99650.50;4940581;28;20023;-85
2022/05/25 05:38:49;;;;;;;1.50;0.90;;;;;;;14.63;66.56;99651.16;4940483;28;20131;-85
2022/05/25 05:41:14;;;;;;;1.95;0.90;;;;;;;14.64;66.24;99655.53;4940375;28;20030;-85
2022/05/25 05:43:40;;;;;;;0.70;0.70;;;;;;;14.66;66.12;99654.38;4939410;28;20042;-85
2022/05/25 05:46:06;;;;;;;2.03;1.10;;;;;;;14.65;66.66;99658.06;4940385;28;20022;-83
2022/05/25 05:48:34;;;;;;;1.52;1.02;;;;;;;14.61;66.46;99655.88;4956456;28;20078;-82
2022/05/25 05:51:01;;;;;;;1.33;1.10;;;;;;;14.64;66.77;99661.75;4940540;28;20125;-84
2022/05/25 05:53:27;;;;;;;1.67;1.05;;;;;;;14.65;66.15;99657.22;4956257;28;20026;-84
2022/05/25 05:55:52;;;;;;;2.00;0.82;;;;;;;14.67;65.87;99663.31;4955661;28;20034;-84
2022/05/25 05:58:18;;;;;;;3.67;1.25;;;;;;;14.71;65.70;99670.03;4940473;28;20023;-85
2022/05/25 06:00:43;;;;;;;2.03;0.90;;;;;;;14.67;65.82;99661.44;4955839;28;20575;-83
2022/05/25 06:03:09;;;;;;;2.15;1.00;;;;;;;14.67;66.00;99669.53;4940316;28;20392;-83
2022/05/25 06:05:34;;;;;;;1.02;0.90;;;;;;;14.69;66.01;99664.81;4941049;28;20065;-84
2022/05/25 06:08:15;;;;;;;1.23;0.80;;;;;;;14.70;65.77;99669.19;4944434;28;20038;-83
2022/05/25 06:10:41;;;;;;;0.88;0.70;;;;;;;14.78;65.74;99666.47;4945000;28;20049;-82
2022/05/25 06:13:07;;;;;;;1.60;0.80;;;;;;;14.72;65.23;99661.78;4944190;28;20031;-83
2022/05/25 06:21:03;;;;;;;2.90;0.88;;;;;;;14.86;65.06;99676.38;4957701;29;20074;-82
2022/05/25 06:23:28;;;;;;;2.47;0.70;;;;;;;14.91;64.82;99674.00;4925904;28;20054;-84
2022/05/25 06:25:53;;;;;;;1.08;0.60;;;;;;;14.85;64.43;99674.69;4926282;29;20019;-85
2022/05/25 06:28:19;;;;;;;0.68;0.65;;;;;;;14.88;64.54;99678.91;4936373;28;20023;-85
2022/05/25 06:30:44;;;;;;;1.20;0.65;;;;;;;14.85;64.47;99673.84;4941789;29;20023;-83
2022/05/25 06:33:10;;;;;;;0.88;0.60;;;;;;;14.96;64.27;99676.16;4942987;28;20522;-84
2022/05/25 06:35:38;;;;;;;1.13;0.55;;;;;;;14.93;63.69;99673.81;4942397;28;20038;-85
2022/05/25 06:38:03;;;;;;;0.82;0.60;;;;;;;15.01;64.16;99671.94;4956579;28;20031;-82
2022/05/25 06:40:29;;;;;;;0.88;0.50;;;;;;;14.92;62.98;99672.16;4954723;28;20042;-82
2022/05/25 06:42:55;;;;;;;2.65;0.60;;;;;;;14.93;62.57;99681.91;4957569;28;20428;-82
2022/05/25 06:45:21;;;;;;;1.40;0.50;;;;;;;14.89;62.52;99673.34;4944278;28;20034;-82
2022/05/25 06:47:46;;;;;;;2.40;0.45;;;;;;;14.87;63.26;99679.91;4940975;29;20031;-82
2022/05/25 06:50:12;;;;;;;0.90;0.50;;;;;;;14.91;63.41;99683.94;4974666;28;20027;-82
2022/05/25 06:52:37;;;;;;;0.82;0.40;;;;;;;15.02;62.73;99684.41;4960207;28;20038;-82
2022/05/25 06:55:03;;;;;;;2.38;0.40;;;;;;;15.10;62.34;99689.75;4944204;28;20077;-84
2022/05/25 06:57:29;;;;;;;1.17;0.50;;;;;;;15.12;62.95;99689.59;4944197;28;20056;-84
2022/05/25 06:59:55;;;;;;;2.83;0.45;;;;;;;15.18;62.01;99696.16;4960181;28;20027;-84
2022/05/25 07:02:21;;;;;;;1.45;0.30;;;;;;;15.06;61.54;99696.50;4944378;28;20037;-83
2022/05/25 07:04:46;;;;;;;1.42;0.50;;;;;;;15.08;61.59;99693.63;4944075;28;20030;-84
2022/05/25 07:07:11;;;;;;;1.15;0.32;;;;;;;15.07;60.89;99697.34;4960243;28;20023;-83
2022/05/25 07:09:39;;;;;;;0.90;0.30;;;;;;;15.09;61.48;99696.16;4960158;28;20135;-84
2022/05/25 07:12:05;;;;;;;0.65;0.40;;;;;;;15.17;61.44;99700.69;4960414;28;20121;-84
2022/05/25 07:14:30;;;;;;;0.40;0.30;;;;;;;15.15;61.66;99700.03;4944040;28;20035;-84
2022/05/25 07:16:56;;;;;;;1.80;0.40;;;;;;;15.23;61.73;99709.94;4958835;28;20034;-84
2022/05/25 07:19:21;;;;;;;0.35;0.35;;;;;;;15.19;61.30;99706.75;4959209;28;20476;-84
2022/05/25 07:21:48;;;;;;;0.35;0.30;;;;;;;15.28;62.73;99713.78;4959651;28;20037;-83
2022/05/25 07:24:14;;;;;;;0.98;0.38;;;;;;;15.28;61.92;99713.78;4943589;28;20047;-84
2022/05/25 07:26:39;;;;;;;0.75;0.50;;;;;;;15.26;62.12;99715.81;4943204;28;20026;-84
2022/05/25 07:29:04;;;;;;;1.35;0.50;;;;;;;15.20;61.17;99719.22;4943772;28;20023;-84
2022/05/25 07:31:42;;;;;;;2.30;0.40;;;;;;;15.29;62.48;99710.09;4950290;28;20039;-84
2022/05/25 07:34:09;;;;;;;1.25;0.50;;;;;;;15.28;61.52;99716.47;4941818;28;20125;-84
2022/05/25 07:36:36;;;;;;;0.52;0.40;;;;;;;15.23;61.57;99713.47;4975642;28;20025;-84
2022/05/25 07:39:04;;;;;;;0.43;0.30;;;;;;;15.25;61.28;99714.13;4958621;28;20038;-83
2022/05/25 07:41:30;;;;;;;0.63;0.40;;;;;;;15.28;61.61;99713.78;4943194;28;20078;-84
2022/05/25 07:43:59;;;;;;;0.40;0.40;;;;;;;15.31;61.83;99723.38;4959461;28;20101;-84
2022/05/25 07:46:25;;;;;;;;;;;;;;;15.35;60.60;99725.56;4959514;28;20089;-85
2022/05/25 07:48:50;;;;;;;1.13;0.50;;;;;;;15.38;61.68;99714.41;4950382;28;20008;-84
2022/05/25 07:51:16;;;;;;;0.88;0.50;;;;;;;15.46;61.48;99723.47;4941978;28;20533;-84
2022/05/25 07:54:00;;;;;;;2.97;0.50;;;;;;;15.36;61.05;99719.16;4937582;28;20478;-84
2022/05/25 07:56:36;;;;;;;0.90;0.40;;;;;;;15.43;60.78;99725.50;4954901;28;20027;-84
2022/05/25 07:59:07;;;;;;;0.93;0.43;;;;;;;15.43;60.88;99728.22;4942533;28;20023;-84
2022/05/25 08:07:22;;;;;;;0.75;0.50;;;;;;;15.39;60.58;99731.44;4959852;28;20050;-83
2022/05/25 08:09:48;;;;;;;1.15;0.40;;;;;;;15.32;60.20;99727.75;4957963;28;20043;-84
2022/05/25 08:12:14;;;;;;;0.40;0.40;;;;;;;15.40;61.65;99728.56;4940992;28;20031;-83
2022/05/25 08:14:39;;;;;;;0.80;0.35;;;;;;;15.37;60.47;99722.69;4941753;28;20117;-84
2022/05/25 08:17:07;;;;;;;1.00;0.38;;;;;;;15.41;60.01;99732.94;4957872;28;20026;-84
2022/05/25 08:19:33;;;;;;;1.00;0.30;;;;;;;15.48;61.93;99738.47;4955892;28;20019;-84
2022/05/25 08:21:59;;;;;;;0.57;0.30;;;;;;;15.52;61.49;99736.25;4941903;28;20026;-85
2022/05/25 08:24:24;;;;;;;0.70;0.40;;;;;;;15.53;61.02;99732.53;4956644;28;20050;-84
2022/05/25 08:26:50;;;;;;;1.58;0.40;;;;;;;15.52;60.59;99725.47;4957763;28;20457;-84
2022/05/25 08:29:15;;;;;;;0.20;0.20;;;;;;;15.55;60.63;99727.81;4938627;28;20019;-85
2022/05/25 08:31:40;;;;;;;0.85;0.40;;;;;;;15.51;60.41;99731.88;4947991;28;20029;-85
2022/05/25 08:34:06;;;;;;;1.27;0.40;;;;;;;15.51;60.38;99729.19;4957675;28;20076;-84
2022/05/25 08:36:32;;;;;;;0.52;0.30;;;;;;;15.50;60.40;99740.97;4941890;28;20412;-85
2022/05/25 08:38:58;;;;;;;1.20;0.35;;;;;;;15.56;60.10;99732.19;4941857;28;20031;-84
2022/05/25 08:41:27;;;;;;;0.30;0.30;;;;;;;15.61;60.68;99732.56;4958004;28;20488;-85
2022/05/25 08:43:54;;;;;;;1.50;0.47;;;;;;;15.68;61.11;99738.94;4941098;28;20022;-84
2022/05/25 08:46:22;;;;;;;1.27;0.40;;;;;;;15.69;61.16;99741.44;4932826;28;20634;-85
2022/05/25 08:48:48;;;;;;;2.10;0.45;;;;;;;15.69;60.95;99737.91;4936921;28;20045;-84
2022/05/25 08:51:17;;;;;;;0.63;0.45;;;;;;;15.61;59.94;99728.03;4956238;28;20031;-84
2022/05/25 08:53:43;;;;;;;1.35;0.40;;;;;;;15.65;60.21;99732.03;4955681;28;20034;-85
2022/05/25 08:56:26;;;;;;;1.80;0.50;;;;;;;15.68;59.89;99733.53;4932935;28;20106;-84
2022/05/25 08:59:19;;;;;;;1.48;0.40;;;;;;;15.72;59.48;99742.97;4956729;28;20140;-83
2022/05/25 09:01:47;;;;;;;0.95;0.30;;;;;;;15.74;60.11;99732.84;4973841;28;20507;-83
2022/05/25 09:04:21;;;;;;;0.80;0.32;;;;;;;15.83;59.08;99728.22;4958054;28;20429;-81
2022/05/25 09:07:14;;;;;;;0.55;0.40;;;;;;;15.88;60.31;99732.06;4940973;28;20141;-81
2022/05/25 09:09:45;;;;;;;1.33;0.30;;;;;;;15.87;59.79;99730.41;4957881;28;20022;-81
2022/05/25 09:12:39;;;;;;;0.40;0.40;;;;;;;15.88;59.29;99728.53;4941550;28;20173;-81
2022/05/25 09:15:09;;;;;;;0.80;0.45;;;;;;;15.96;59.71;99739.28;4945138;28;20513;-81
2022/05/25 09:17:41;;;;;;;1.55;0.22;;;;;;;16.03;60.83;99740.25;4940631;28;20078;-80
2022/05/25 09:20:08;;;;;;;3.22;0.50;;;;;;;15.92;59.27;99737.94;4936667;29;20240;-84
2022/05/25 09:22:34;;;;;;;0.32;0.30;;;;;;;15.86;58.36;99730.56;4920876;29;20024;-83
2022/05/25 09:25:03;;;;;;;0.52;0.40;;;;;;;15.86;59.89;99731.41;4921507;29;20438;-84
2022/05/25 09:28:00;;;;;;;1.02;0.30;;;;;;;15.85;58.20;99734.28;4937166;29;20027;-83
2022/05/25 09:30:27;;;;;;;0.73;0.38;;;;;;;15.84;58.19;99732.59;4947349;29;20047;-84
2022/05/25 09:33:06;;;;;;;1.67;0.50;;;;;;;15.85;58.03;99731.59;4937676;29;20023;-84
2022/05/25 09:35:40;;;;;;;0.38;0.30;;;;;;;15.87;57.79;99743.88;4921412;29;20062;-83
2022/05/25 09:38:14;;;;;;;0.40;0.40;;;;;;;15.88;56.79;99739.31;4921520;29;20177;-84
2022/05/25 09:40:44;;;;;;;1.48;0.40;;;;;;;15.92;57.20;99746.03;4921662;29;20046;-86
2022/05/25 09:43:14;;;;;;;0.60;0.43;;;;;;;16.00;56.95;99749.53;4942395;28;20035;-84
2022/05/25 09:45:42;;;;;;;1.23;0.30;;;;;;;15.97;57.28;99743.66;4934495;29;20121;-85
2022/05/25 09:48:18;;;;;;;0.82;0.30;;;;;;;16.02;58.21;99733.16;4940630;28;20154;-85
2022/05/25 09:50:51;;;;;;;1.48;0.45;;;;;;;16.05;57.85;99741.75;4939716;28;20705;-84
2022/05/25 09:53:17;;;;;;;0.40;0.30;;;;;;;16.10;57.68;99745.78;4941222;28;20393;-84
2022/05/25 09:55:45;;;;;;;2.47;0.30;;;;;;;16.08;56.20;99739.69;4941132;28;20118;-84
2022/05/25 09:58:28;;;;;;;1.40;0.57;;;;;;;16.17;57.92;99746.75;4941252;28;20366;-84
2022/05/25 10:00:57;;;;;;;0.47;0.30;;;;;;;16.24;57.29;99745.00;4941149;28;20078;-84
2022/05/25 10:03:34;;;;;;;0.63;0.35;;;;;;;16.28;59.22;99744.47;4940868;28;20042;-85
2022/05/25 10:06:01;;;;;;;0.80;0.40;;;;;;;16.25;58.30;99744.00;4941117;28;20477;-85
2022/05/25 10:08:36;;;;;;;1.35;0.47;;;;;;;16.27;57.48;99752.75;4957449;28;20042;-84
2022/05/25 10:11:11;;;;;;;0.90;0.38;;;;;;;16.32;58.61;99745.78;4941341;28;20046;-85
2022/05/25 10:13:40;;;;;;;0.75;0.40;;;;;;;16.30;58.05;99750.53;4938483;28;20489;-84
2022/05/25 10:16:29;;;;;;;1.70;0.60;;;;;;;16.32;56.88;99745.78;4941011;28;20038;-84
2022/05/25 10:18:55;;;;;;;2.22;0.50;;;;;;;16.32;57.01;99739.53;4926114;29;20445;-84
2022/05/25 10:21:31;;;;;;;0.75;0.47;;;;;;;16.36;57.62;99735.47;4925128;28;20023;-84
2022/05/25 10:23:57;;;;;;;0.55;0.35;;;;;;;16.37;56.34;99740.69;4989051;28;20038;-85
2022/05/25 10:26:31;;;;;;;0.85;0.50;;;;;;;16.41;57.62;99733.06;4956902;28;20110;-84
2022/05/25 10:29:02;;;;;;;0.50;0.43;;;;;;;16.49;58.26;99749.19;4940939;28;20023;-84
2022/05/25 10:37:10;;;;;;;1.58;0.50;;;;;;;16.51;57.43;99738.22;4956969;28;20033;-84
2022/05/25 10:39:39;;;;;;;0.95;0.30;;;;;;;16.54;59.22;99746.78;4956924;28;20027;-84
2022/05/25 10:42:23;;;;;;;1.38;0.40;;;;;;;16.56;58.48;99742.06;4939652;28;20035;-86
2022/05/25 10:45:07;;;;;;;1.73;0.50;;;;;;;16.60;57.16;99754.19;4940766;28;20561;-83
2022/05/25 10:47:51;;;;;;;0.68;0.40;;;;;;;16.58;56.42;99744.59;4921468;29;20045;-84
2022/05/25 10:50:23;;;;;;;1.95;0.40;;;;;;;16.61;56.87;99741.53;4953222;29;20139;-84
2022/05/25 10:52:55;;;;;;;0.70;0.40;;;;;;;16.61;57.83;99745.06;4939093;29;20052;-85
2022/05/25 10:55:24;;;;;;;0.68;0.50;;;;;;;16.61;57.28;99745.06;4924333;29;20027;-84
2022/05/25 10:57:56;;;;;;;;;;;;;;;16.61;57.20;99746.94;4940476;29;20031;-85
2022/05/25 11:00:34;;;;;;;1.00;0.40;;;;;;;16.59;57.05;99748.97;4940379;29;19914;-85
2022/05/25 11:03:08;;;;;;;0.90;0.45;;;;;;;16.61;57.88;99745.06;4957064;29;20027;-86
2022/05/25 11:05:45;;;;;;;1.00;0.43;;;;;;;16.61;58.98;99745.06;4922811;29;20051;-86
2022/05/25 11:08:21;;;;;;;1.65;0.32;;;;;;;16.61;58.92;99749.63;4938693;29;20030;-85
2022/05/25 11:10:57;;;;;;;2.55;0.70;;;;;;;16.59;58.72;99752.50;4939152;29;20381;-85
2022/05/25 11:13:37;;;;;;;1.98;0.40;;;;;;;16.58;57.25;99753.53;4922965;29;20027;-86
2022/05/25 11:16:09;;;;;;;0.88;0.47;;;;;;;16.57;56.04;99746.44;4923809;29;20023;-86
2022/05/25 11:19:04;;;;;;;1.00;0.30;;;;;;;16.54;55.52;99760.28;4922865;29;20112;-85
2022/05/25 11:21:29;;;;;;;0.88;0.47;;;;;;;16.57;55.21;99759.13;4948737;28;20106;-85
2022/05/25 11:24:07;;;;;;;1.93;0.40;;;;;;;16.59;56.26;99755.22;4953483;28;20629;-85
2022/05/25 11:26:57;;;;;;;1.27;0.50;;;;;;;16.71;56.69;99752.94;4942204;28;20286;-85
2022/05/25 11:29:58;;;;;;;0.40;0.40;;;;;;;16.74;57.43;99757.13;4954646;28;20037;-85
2022/05/25 11:32:34;;;;;;;1.17;0.30;;;;;;;16.78;57.09;99753.88;4938572;28;20156;-85
2022/05/25 11:35:12;;;;;;;1.17;0.40;;;;;;;16.82;55.72;99754.34;4947252;28;20093;-86
2022/05/25 11:38:11;;;;;;;0.57;0.32;;;;;;;16.76;56.29;99749.69;4958388;28;20054;-84
2022/05/25 11:40:51;;;;;;;0.85;0.32;;;;;;;16.77;56.01;99756.78;4955465;28;20023;-84
2022/05/25 11:43:49;;;;;;;0.82;0.50;;;;;;;16.82;56.14;99741.69;4959302;28;20500;-84
2022/05/25 11:46:20;;;;;;;1.92;0.40;;;;;;;16.84;54.54;99753.16;4959027;28;20038;-84
2022/05/25 11:49:04;;;;;;;1.13;0.38;;;;;;;16.88;57.01;99746.34;4959391;28;20027;-83
2022/05/25 11:51:52;;;;;;;0.40;0.40;;;;;;;16.91;56.05;99742.44;4958908;28;20126;-85
2022/05/25 11:54:30;;;;;;;;;;;;;;;16.95;56.76;99739.19;4912980;28;20047;-84
2022/05/25 11:57:17;;;;;;;3.35;0.50;;;;;;;17.00;56.31;99736.78;4957019;28;19969;-84
2022/05/25 12:00:12;;;;;;;0.80;0.40;;;;;;;17.03;55.87;99738.31;4958305;28;20130;-84
2022/05/25 12:02:59;;;;;;;0.93;0.30;;;;;;;17.13;56.31;99740.72;4937861;29;20042;-83
2022/05/25 12:05:54;;;;;;;0.60;0.40;;;;;;;17.19;52.78;99737.28;4956927;29;20038;-84
2022/05/25 12:08:41;;;;;;;1.33;0.40;;;;;;;17.22;52.16;99748.56;4948143;28;20031;-83
2022/05/25 12:11:12;;;;;;;2.58;0.30;;;;;;;17.20;52.46;99739.78;4975271;28;20043;-84
2022/05/25 12:13:43;;;;;;;2.55;0.50;;;;;;;17.12;50.28;99739.03;4925588;29;20019;-84
2022/05/25 12:16:17;;;;;;;1.38;0.40;;;;;;;17.16;54.24;99733.09;4930765;28;20519;-85
2022/05/25 12:18:50;;;;;;;0.68;0.40;;;;;;;17.23;55.10;99727.78;4934276;28;20121;-83